createdAt,value
2022-07-29T00:00:57.451Z,16.19
2022-07-29T00:04:59.699Z,16.16
2022-07-29T00:09:01.360Z,16.14
2022-07-29T00:13:03.301Z,16.10
2022-07-29T00:17:04.973Z,16.08
2022-07-29T00:21:06.587Z,16.02
2022-07-29T00:25:09.115Z,15.98
2022-07-29T00:29:33.502Z,15.94
2022-07-29T00:33:32.335Z,15.91
2022-07-29T00:37:33.954Z,15.87
2022-07-29T00:41:35.862Z,15.85
2022-07-29T00:45:37.595Z,15.81
2022-07-29T00:49:41.514Z,15.75
2022-07-29T00:53:43.306Z,15.71
2022-07-29T00:57:46.416Z,15.68
2022-07-29T01:01:48.134Z,15.67
2022-07-29T01:05:51.472Z,15.65
2022-07-29T01:09:55.742Z,15.64
2022-07-29T01:13:57.949Z,15.65
2022-07-29T01:18:15.323Z,15.61
2022-07-29T01:22:28.030Z,15.61
2022-07-29T01:26:50.001Z,15.59
2022-07-29T01:30:53.093Z,15.58
2022-07-29T01:35:26.131Z,15.55
2022-07-29T01:39:33.419Z,15.51
2022-07-29T01:44:30.786Z,15.49
2022-07-29T01:48:35.113Z,15.48
2022-07-29T01:53:07.550Z,15.50
2022-07-29T01:57:12.036Z,15.49
2022-07-29T02:01:14.890Z,15.47
2022-07-29T02:05:19.671Z,15.43
2022-07-29T02:09:23.402Z,15.42
2022-07-29T02:13:28.677Z,15.41
2022-07-29T02:17:36.112Z,15.41
2022-07-29T02:21:43.955Z,15.39
2022-07-29T02:25:50.108Z,15.39
2022-07-29T02:29:53.138Z,15.38
2022-07-29T02:33:56.991Z,15.36
2022-07-29T02:38:17.591Z,15.35
2022-07-29T02:42:20.620Z,15.33
2022-07-29T02:46:31.649Z,15.31
2022-07-29T02:50:38.496Z,15.28
2022-07-29T02:54:49.963Z,15.28
2022-07-29T02:58:57.079Z,15.28
2022-07-29T03:03:02.074Z,15.28
2022-07-29T03:07:05.893Z,15.27
2022-07-29T03:11:09.973Z,15.25
2022-07-29T03:15:12.135Z,15.22
2022-07-29T03:19:14.318Z,15.20
2022-07-29T03:23:21.020Z,15.18
2022-07-29T03:27:22.726Z,15.16
2022-07-29T03:31:24.409Z,15.14
2022-07-29T03:35:26.144Z,15.14
2022-07-29T03:39:32.536Z,15.12
2022-07-29T03:43:37.520Z,15.10
2022-07-29T03:47:59.932Z,15.07
2022-07-29T03:52:02.520Z,15.04
2022-07-29T03:56:05.402Z,15.03
2022-07-29T04:00:08.701Z,15.01
2022-07-29T04:04:10.470Z,15.00
2022-07-29T04:08:12.057Z,15.01
2022-07-29T04:12:13.662Z,15.00
2022-07-29T04:16:15.299Z,14.99
2022-07-29T04:20:17.062Z,14.98
2022-07-29T04:24:19.191Z,14.98
2022-07-29T04:28:21.033Z,15.00
2022-07-29T04:32:22.693Z,15.01
2022-07-29T04:36:29.514Z,15.04
2022-07-29T04:40:33.972Z,15.06
2022-07-29T04:44:37.225Z,15.10
2022-07-29T04:48:41.563Z,15.16
2022-07-29T04:52:43.472Z,15.23
2022-07-29T04:56:45.229Z,15.30
2022-07-29T05:00:46.878Z,15.37
2022-07-29T05:04:49.074Z,15.43
2022-07-29T05:08:50.676Z,15.45
2022-07-29T05:12:52.343Z,15.48
2022-07-29T05:16:57.534Z,15.50
2022-07-29T05:20:59.156Z,15.50
2022-07-29T05:25:03.305Z,15.54
2022-07-29T05:29:08.790Z,15.59
2022-07-29T05:33:36.426Z,15.65
2022-07-29T05:37:39.299Z,15.70
2022-07-29T05:41:41.216Z,15.72
2022-07-29T05:45:49.668Z,15.84
2022-07-29T05:49:52.227Z,15.99
2022-07-29T05:53:53.810Z,16.13
2022-07-29T05:57:55.426Z,16.26
2022-07-29T06:01:58.225Z,16.49
2022-07-29T06:06:00.129Z,16.69
2022-07-29T06:10:01.767Z,16.93
2022-07-29T06:14:04.097Z,17.03
2022-07-29T06:18:10.032Z,16.98
2022-07-29T06:22:12.715Z,17.01
2022-07-29T06:26:14.377Z,17.00
2022-07-29T06:30:16.034Z,16.95
2022-07-29T06:34:18.034Z,16.93
2022-07-29T06:38:31.140Z,17.00
2022-07-29T06:42:35.684Z,17.05
2022-07-29T06:46:37.567Z,17.12
2022-07-29T06:50:40.631Z,17.20
2022-07-29T06:54:48.899Z,17.25
2022-07-29T06:58:50.518Z,17.37
2022-07-29T07:02:52.297Z,17.45
2022-07-29T07:06:54.043Z,17.56
2022-07-29T07:10:56.189Z,17.64
2022-07-29T07:14:57.789Z,17.84
2022-07-29T07:18:59.495Z,18.02
2022-07-29T07:23:01.180Z,18.17
2022-07-29T07:27:02.885Z,18.37
2022-07-29T07:31:04.583Z,18.45
2022-07-29T07:35:08.529Z,18.52
2022-07-29T07:39:10.233Z,18.50
2022-07-29T07:43:11.798Z,18.56
2022-07-29T07:47:13.775Z,18.64
2022-07-29T07:51:16.979Z,18.73
2022-07-29T07:55:19.922Z,18.84
2022-07-29T07:59:21.753Z,18.88
2022-07-29T08:03:23.322Z,18.78
2022-07-29T08:07:24.955Z,18.76
2022-07-29T08:11:26.595Z,18.83
2022-07-29T08:15:29.259Z,18.85
2022-07-29T08:19:31.077Z,18.77
2022-07-29T08:23:47.272Z,18.77
2022-07-29T08:27:50.427Z,18.77
2022-07-29T08:31:52.341Z,18.85
2022-07-29T08:35:54.167Z,18.88
2022-07-29T08:39:55.763Z,18.91
2022-07-29T08:43:57.475Z,18.96
2022-07-29T08:47:59.605Z,19.02
2022-07-29T08:52:02.017Z,19.07
2022-07-29T08:56:03.790Z,19.13
2022-07-29T09:00:11.316Z,19.27
2022-07-29T09:04:15.879Z,19.28
2022-07-29T09:08:18.448Z,19.28
2022-07-29T09:12:29.041Z,19.33
2022-07-29T09:17:02.016Z,19.46
2022-07-29T09:21:23.482Z,19.55
2022-07-29T09:25:36.071Z,19.69
2022-07-29T09:29:38.930Z,19.79
2022-07-29T09:33:43.011Z,19.80
2022-07-29T09:37:45.460Z,19.80
2022-07-29T09:41:49.726Z,19.89
2022-07-29T09:45:51.700Z,19.94
2022-07-29T09:50:00.776Z,20.03
2022-07-29T09:54:05.005Z,20.09
2022-07-29T09:58:19.953Z,20.02
2022-07-29T10:02:23.472Z,20.07
2022-07-29T10:06:25.533Z,20.14
2022-07-29T10:10:35.586Z,20.20
2022-07-29T10:14:38.500Z,20.18
2022-07-29T10:18:41.516Z,20.14
2022-07-29T10:22:53.152Z,20.25
2022-07-29T10:26:59.603Z,20.39
2022-07-29T10:31:09.037Z,20.53
2022-07-29T10:35:29.006Z,20.62
2022-07-29T10:39:49.896Z,20.66
2022-07-29T10:43:52.805Z,20.75
2022-07-29T10:48:07.835Z,20.72
2022-07-29T10:52:10.603Z,20.76
2022-07-29T10:56:30.001Z,20.80
2022-07-29T11:00:32.903Z,20.84
2022-07-29T11:04:46.906Z,20.90
2022-07-29T11:09:34.889Z,20.97
2022-07-29T11:13:47.271Z,21.05
2022-07-29T11:17:59.511Z,21.02
2022-07-29T11:22:02.375Z,21.05
2022-07-29T11:26:26.726Z,21.01
2022-07-29T11:30:51.457Z,21.11
2022-07-29T11:35:19.079Z,21.16
2022-07-29T11:39:36.635Z,21.23
2022-07-29T11:43:59.165Z,21.31
2022-07-29T11:48:29.686Z,21.41
2022-07-29T11:52:23.055Z,21.47
2022-07-29T11:56:30.630Z,21.60
2022-07-29T12:00:38.897Z,21.58
2022-07-29T12:04:53.613Z,21.66
2022-07-29T12:08:57.659Z,21.77
2022-07-29T12:12:59.942Z,21.85
2022-07-29T12:17:01.635Z,21.90
2022-07-29T12:21:06.659Z,21.97
2022-07-29T12:25:32.681Z,22.01
2022-07-29T12:29:32.756Z,22.03
2022-07-29T12:33:36.270Z,22.10
2022-07-29T12:37:41.156Z,22.15
2022-07-29T12:41:45.110Z,22.21
2022-07-29T12:45:49.359Z,22.24
2022-07-29T12:49:52.167Z,22.25
2022-07-29T12:54:16.372Z,22.37
2022-07-29T12:58:35.245Z,22.40
2022-07-29T13:02:38.170Z,22.51
2022-07-29T13:06:45.894Z,22.53
2022-07-29T13:10:47.933Z,22.52
2022-07-29T13:14:51.321Z,22.57
2022-07-29T13:19:12.795Z,22.70
2022-07-29T13:23:16.356Z,22.73
2022-07-29T13:27:19.811Z,22.79
2022-07-29T13:31:21.619Z,22.90
2022-07-29T13:35:23.259Z,22.95
2022-07-29T13:39:24.875Z,22.96
2022-07-29T13:43:26.484Z,23.01
2022-07-29T13:47:32.076Z,23.03
2022-07-29T13:51:34.723Z,22.93
2022-07-29T13:55:36.381Z,22.87
2022-07-29T13:59:38.356Z,22.88
2022-07-29T14:03:45.647Z,22.95
2022-07-29T14:07:47.521Z,23.04
2022-07-29T14:11:51.132Z,23.10
2022-07-29T14:15:53.495Z,23.22
2022-07-29T14:19:55.213Z,23.39
2022-07-29T14:23:56.951Z,23.50
2022-07-29T14:27:59.835Z,23.52
2022-07-29T14:32:02.239Z,23.48
2022-07-29T14:36:04.335Z,23.52
2022-07-29T14:40:06.638Z,23.50
2022-07-29T14:44:08.313Z,23.53
2022-07-29T14:48:09.986Z,23.46
2022-07-29T14:52:11.665Z,23.45
2022-07-29T14:56:35.671Z,23.52
2022-07-29T15:00:34.961Z,23.48
2022-07-29T15:04:36.642Z,23.51
2022-07-29T15:08:38.298Z,23.53
2022-07-29T15:12:39.888Z,23.52
2022-07-29T15:16:48.104Z,23.44
2022-07-29T15:20:50.038Z,23.37
2022-07-29T15:24:51.646Z,23.29
2022-07-29T15:28:53.458Z,23.32
2022-07-29T15:32:55.965Z,23.30
2022-07-29T15:36:59.166Z,23.28
2022-07-29T15:41:00.856Z,23.26
2022-07-29T15:45:03.896Z,23.28
2022-07-29T15:49:06.981Z,23.19
2022-07-29T15:53:08.622Z,23.16
2022-07-29T15:57:10.239Z,23.13
2022-07-29T16:01:11.974Z,23.02
2022-07-29T16:05:13.625Z,22.99
2022-07-29T16:09:16.271Z,22.92
2022-07-29T16:13:18.919Z,22.92
2022-07-29T16:17:22.528Z,22.98
2022-07-29T16:21:24.152Z,22.92
2022-07-29T16:25:43.967Z,22.87
2022-07-29T16:29:49.207Z,22.90
2022-07-29T16:33:54.959Z,22.90
2022-07-29T16:37:57.989Z,22.86
2022-07-29T16:42:01.495Z,22.78
2022-07-29T16:46:05.117Z,22.79
2022-07-29T16:50:07.444Z,22.80
2022-07-29T16:54:10.702Z,22.75
2022-07-29T16:58:12.764Z,22.73
2022-07-29T17:02:15.137Z,22.69
2022-07-29T17:06:16.841Z,22.65
2022-07-29T17:10:18.541Z,22.58
2022-07-29T17:14:24.078Z,22.57
2022-07-29T17:18:25.977Z,22.47
2022-07-29T17:22:27.796Z,22.46
2022-07-29T17:26:29.572Z,22.49
2022-07-29T17:30:31.239Z,22.42
2022-07-29T17:34:32.832Z,22.40
2022-07-29T17:38:34.481Z,22.41
2022-07-29T17:42:36.096Z,22.40
2022-07-29T17:46:37.969Z,22.25
2022-07-29T17:50:39.860Z,22.18
2022-07-29T17:54:41.508Z,22.05
2022-07-29T17:58:43.163Z,21.95
2022-07-29T18:02:44.770Z,21.92
2022-07-29T18:06:46.513Z,21.85
2022-07-29T18:10:48.162Z,21.67
2022-07-29T18:14:49.795Z,21.54
2022-07-29T18:18:51.494Z,21.43
2022-07-29T18:22:53.326Z,21.34
2022-07-29T18:26:55.074Z,21.24
2022-07-29T18:30:56.768Z,21.18
2022-07-29T18:35:02.456Z,21.09
2022-07-29T18:39:04.198Z,20.96
2022-07-29T18:43:07.193Z,20.93
2022-07-29T18:47:08.797Z,20.82
2022-07-29T18:51:13.602Z,20.72
2022-07-29T18:55:15.179Z,20.62
2022-07-29T18:59:19.569Z,20.52
2022-07-29T19:03:21.192Z,20.39
2022-07-29T19:07:25.466Z,20.34
2022-07-29T19:11:27.280Z,20.27
2022-07-29T19:15:29.208Z,20.21
2022-07-29T19:19:30.858Z,20.14
2022-07-29T19:23:32.488Z,20.08
2022-07-29T19:27:54.255Z,19.96
2022-07-29T19:31:55.866Z,19.91
2022-07-29T19:35:57.689Z,19.87
2022-07-29T19:39:59.416Z,19.84
2022-07-29T19:44:01.083Z,19.76
2022-07-29T19:48:05.410Z,19.69
2022-07-29T19:52:07.067Z,19.61
2022-07-29T19:56:09.068Z,19.53
2022-07-29T20:00:12.291Z,19.46
2022-07-29T20:04:13.919Z,19.40
2022-07-29T20:08:15.547Z,19.33
2022-07-29T20:12:17.398Z,19.25
2022-07-29T20:16:19.126Z,19.17
